sensor_id;sensor_type;location;lat;lon;timestamp;P1;P2;P0
42410;PMS5003;28056;51.112;0.984;2022-10-29T00:00:37;3;3;
42410;PMS5003;28056;51.112;0.984;2022-10-29T00:04:47;2;2;
42410;PMS5003;28056;51.112;0.984;2022-10-29T00:07:14;3;2;
42410;PMS5003;28056;51.112;0.984;2022-10-29T00:09:42;9;2;
42410;PMS5003;28056;51.112;0.984;2022-10-29T00:12:10;5;3;
42410;PMS5003;28056;51.112;0.984;2022-10-29T00:14:37;8;4;
42410;PMS5003;28056;51.112;0.984;2022-10-29T00:17:05;2;1;
42410;PMS5003;28056;51.112;0.984;2022-10-29T00:19:32;2;2;
42410;PMS5003;28056;51.112;0.984;2022-10-29T00:22:05;4;2;
42410;PMS5003;28056;51.112;0.984;2022-10-29T00:24:32;3;3;
42410;PMS5003;28056;51.112;0.984;2022-10-29T00:26:59;2;2;
42410;PMS5003;28056;51.112;0.984;2022-10-29T00:29:27;3;3;
42410;PMS5003;28056;51.112;0.984;2022-10-29T00:31:55;8;2;
42410;PMS5003;28056;51.112;0.984;2022-10-29T00:34:22;2;2;
42410;PMS5003;28056;51.112;0.984;2022-10-29T00:36:50;2;2;
42410;PMS5003;28056;51.112;0.984;2022-10-29T00:39:18;2;2;
42410;PMS5003;28056;51.112;0.984;2022-10-29T00:41:45;2;2;
42410;PMS5003;28056;51.112;0.984;2022-10-29T00:44:23;2;2;
42410;PMS5003;28056;51.112;0.984;2022-10-29T00:46:57;3;3;
42410;PMS5003;28056;51.112;0.984;2022-10-29T00:49:28;5;2;
42410;PMS5003;28056;51.112;0.984;2022-10-29T00:51:57;3;3;
42410;PMS5003;28056;51.112;0.984;2022-10-29T00:54:27;4;4;
42410;PMS5003;28056;51.112;0.984;2022-10-29T00:56:58;3;2;
42410;PMS5003;28056;51.112;0.984;2022-10-29T00:59:31;4;3;
42410;PMS5003;28056;51.112;0.984;2022-10-29T01:01:59;2;2;
42410;PMS5003;28056;51.112;0.984;2022-10-29T01:04:27;3;3;
42410;PMS5003;28056;51.112;0.984;2022-10-29T01:06:55;2;2;
42410;PMS5003;28056;51.112;0.984;2022-10-29T01:09:23;3;3;
42410;PMS5003;28056;51.112;0.984;2022-10-29T01:11:53;9;6;
42410;PMS5003;28056;51.112;0.984;2022-10-29T01:14:34;3;3;
42410;PMS5003;28056;51.112;0.984;2022-10-29T01:17:12;2;2;
42410;PMS5003;28056;51.112;0.984;2022-10-29T01:19:54;4;3;
42410;PMS5003;28056;51.112;0.984;2022-10-29T01:22:36;5;2;
42410;PMS5003;28056;51.112;0.984;2022-10-29T01:25:23;4;4;
42410;PMS5003;28056;51.112;0.984;2022-10-29T01:28:12;2;2;
42410;PMS5003;28056;51.112;0.984;2022-10-29T01:30:59;2;1;
42410;PMS5003;28056;51.112;0.984;2022-10-29T01:33:44;3;3;
42410;PMS5003;28056;51.112;0.984;2022-10-29T01:36:21;2;2;
42410;PMS5003;28056;51.112;0.984;2022-10-29T01:38:58;3;3;
42410;PMS5003;28056;51.112;0.984;2022-10-29T01:41:32;4;3;
42410;PMS5003;28056;51.112;0.984;2022-10-29T01:44:09;7;3;
42410;PMS5003;28056;51.112;0.984;2022-10-29T01:46:45;3;3;
42410;PMS5003;28056;51.112;0.984;2022-10-29T01:49:19;2;2;
42410;PMS5003;28056;51.112;0.984;2022-10-29T01:51:52;5;5;
42410;PMS5003;28056;51.112;0.984;2022-10-29T01:54:21;5;3;
42410;PMS5003;28056;51.112;0.984;2022-10-29T01:56:52;2;2;
42410;PMS5003;28056;51.112;0.984;2022-10-29T01:59:20;5;3;
42410;PMS5003;28056;51.112;0.984;2022-10-29T02:01:51;5;3;
42410;PMS5003;28056;51.112;0.984;2022-10-29T02:04:31;2;2;
42410;PMS5003;28056;51.112;0.984;2022-10-29T02:07:15;3;2;
42410;PMS5003;28056;51.112;0.984;2022-10-29T02:09:58;9;4;
42410;PMS5003;28056;51.112;0.984;2022-10-29T02:12:34;1;1;
42410;PMS5003;28056;51.112;0.984;2022-10-29T02:15:07;5;3;
42410;PMS5003;28056;51.112;0.984;2022-10-29T02:17:37;5;3;
42410;PMS5003;28056;51.112;0.984;2022-10-29T02:20:06;3;1;
42410;PMS5003;28056;51.112;0.984;2022-10-29T02:22:35;4;3;
42410;PMS5003;28056;51.112;0.984;2022-10-29T02:25:03;2;2;
42410;PMS5003;28056;51.112;0.984;2022-10-29T02:27:32;7;3;
42410;PMS5003;28056;51.112;0.984;2022-10-29T02:29:59;2;2;
42410;PMS5003;28056;51.112;0.984;2022-10-29T02:32:27;4;2;
42410;PMS5003;28056;51.112;0.984;2022-10-29T02:34:55;1;1;
42410;PMS5003;28056;51.112;0.984;2022-10-29T02:37:22;5;2;
42410;PMS5003;28056;51.112;0.984;2022-10-29T02:39:50;6;2;
42410;PMS5003;28056;51.112;0.984;2022-10-29T02:42:17;3;3;
42410;PMS5003;28056;51.112;0.984;2022-10-29T02:44:45;7;5;
42410;PMS5003;28056;51.112;0.984;2022-10-29T02:47:12;5;5;
42410;PMS5003;28056;51.112;0.984;2022-10-29T02:49:39;10;8;
42410;PMS5003;28056;51.112;0.984;2022-10-29T02:52:07;4;4;
42410;PMS5003;28056;51.112;0.984;2022-10-29T02:54:34;4;3;
42410;PMS5003;28056;51.112;0.984;2022-10-29T02:57:02;5;4;
42410;PMS5003;28056;51.112;0.984;2022-10-29T02:59:30;3;3;
42410;PMS5003;28056;51.112;0.984;2022-10-29T03:01:57;2;2;
42410;PMS5003;28056;51.112;0.984;2022-10-29T03:04:25;2;2;
42410;PMS5003;28056;51.112;0.984;2022-10-29T03:06:52;5;3;
42410;PMS5003;28056;51.112;0.984;2022-10-29T03:09:20;4;3;
42410;PMS5003;28056;51.112;0.984;2022-10-29T03:11:48;3;2;
42410;PMS5003;28056;51.112;0.984;2022-10-29T03:14:15;2;1;
42410;PMS5003;28056;51.112;0.984;2022-10-29T03:16:43;6;3;
42410;PMS5003;28056;51.112;0.984;2022-10-29T03:19:11;4;2;
42410;PMS5003;28056;51.112;0.984;2022-10-29T03:21:38;2;2;
42410;PMS5003;28056;51.112;0.984;2022-10-29T03:24:06;3;1;
42410;PMS5003;28056;51.112;0.984;2022-10-29T03:26:33;1;1;
42410;PMS5003;28056;51.112;0.984;2022-10-29T03:29:01;0;0;
42410;PMS5003;28056;51.112;0.984;2022-10-29T03:31:29;2;2;
42410;PMS5003;28056;51.112;0.984;2022-10-29T03:33:56;3;3;
42410;PMS5003;28056;51.112;0.984;2022-10-29T03:36:24;7;3;
42410;PMS5003;28056;51.112;0.984;2022-10-29T03:38:52;3;2;
42410;PMS5003;28056;51.112;0.984;2022-10-29T03:41:19;4;2;
42410;PMS5003;28056;51.112;0.984;2022-10-29T03:43:47;1;1;
42410;PMS5003;28056;51.112;0.984;2022-10-29T03:46:14;1;1;
42410;PMS5003;28056;51.112;0.984;2022-10-29T03:48:42;2;2;
42410;PMS5003;28056;51.112;0.984;2022-10-29T03:51:10;2;2;
42410;PMS5003;28056;51.112;0.984;2022-10-29T03:53:37;4;1;
42410;PMS5003;28056;51.112;0.984;2022-10-29T03:56:05;1;1;
42410;PMS5003;28056;51.112;0.984;2022-10-29T03:58:32;2;1;
42410;PMS5003;28056;51.112;0.984;2022-10-29T04:01:01;2;1;
42410;PMS5003;28056;51.112;0.984;2022-10-29T04:03:31;0;0;
42410;PMS5003;28056;51.112;0.984;2022-10-29T04:06:00;4;2;
42410;PMS5003;28056;51.112;0.984;2022-10-29T04:08:33;2;1;
42410;PMS5003;28056;51.112;0.984;2022-10-29T04:11:01;3;1;
42410;PMS5003;28056;51.112;0.984;2022-10-29T04:13:28;1;1;
42410;PMS5003;28056;51.112;0.984;2022-10-29T04:15:56;2;2;
42410;PMS5003;28056;51.112;0.984;2022-10-29T04:18:24;1;1;
42410;PMS5003;28056;51.112;0.984;2022-10-29T04:20:51;2;2;
42410;PMS5003;28056;51.112;0.984;2022-10-29T04:23:19;2;2;
42410;PMS5003;28056;51.112;0.984;2022-10-29T04:25:53;1;1;
42410;PMS5003;28056;51.112;0.984;2022-10-29T04:28:21;1;1;
42410;PMS5003;28056;51.112;0.984;2022-10-29T04:30:49;3;3;
42410;PMS5003;28056;51.112;0.984;2022-10-29T04:33:16;2;2;
42410;PMS5003;28056;51.112;0.984;2022-10-29T04:35:47;3;2;
42410;PMS5003;28056;51.112;0.984;2022-10-29T04:38:18;1;1;
42410;PMS5003;28056;51.112;0.984;2022-10-29T04:40:45;2;2;
42410;PMS5003;28056;51.112;0.984;2022-10-29T04:43:13;4;3;
42410;PMS5003;28056;51.112;0.984;2022-10-29T04:45:41;5;2;
42410;PMS5003;28056;51.112;0.984;2022-10-29T04:48:08;4;3;
42410;PMS5003;28056;51.112;0.984;2022-10-29T04:50:36;3;3;
42410;PMS5003;28056;51.112;0.984;2022-10-29T04:53:04;2;2;
42410;PMS5003;28056;51.112;0.984;2022-10-29T04:55:34;3;2;
42410;PMS5003;28056;51.112;0.984;2022-10-29T04:58:02;4;3;
42410;PMS5003;28056;51.112;0.984;2022-10-29T05:00:30;7;3;
42410;PMS5003;28056;51.112;0.984;2022-10-29T05:02:58;5;5;
42410;PMS5003;28056;51.112;0.984;2022-10-29T05:05:26;2;2;
42410;PMS5003;28056;51.112;0.984;2022-10-29T05:07:56;6;5;
42410;PMS5003;28056;51.112;0.984;2022-10-29T05:10:25;7;7;
42410;PMS5003;28056;51.112;0.984;2022-10-29T05:12:55;4;3;
42410;PMS5003;28056;51.112;0.984;2022-10-29T05:15:23;4;4;
42410;PMS5003;28056;51.112;0.984;2022-10-29T05:17:52;5;3;
42410;PMS5003;28056;51.112;0.984;2022-10-29T05:20:19;6;6;
42410;PMS5003;28056;51.112;0.984;2022-10-29T05:22:47;4;3;
42410;PMS5003;28056;51.112;0.984;2022-10-29T05:25:15;4;3;
42410;PMS5003;28056;51.112;0.984;2022-10-29T05:27:42;6;6;
42410;PMS5003;28056;51.112;0.984;2022-10-29T05:30:10;8;4;
42410;PMS5003;28056;51.112;0.984;2022-10-29T05:32:37;2;2;
42410;PMS5003;28056;51.112;0.984;2022-10-29T05:35:05;3;3;
42410;PMS5003;28056;51.112;0.984;2022-10-29T05:37:32;7;2;
42410;PMS5003;28056;51.112;0.984;2022-10-29T05:40:00;8;4;
42410;PMS5003;28056;51.112;0.984;2022-10-29T05:42:28;3;3;
42410;PMS5003;28056;51.112;0.984;2022-10-29T05:44:55;4;4;
42410;PMS5003;28056;51.112;0.984;2022-10-29T05:47:23;6;5;
42410;PMS5003;28056;51.112;0.984;2022-10-29T05:49:50;4;4;
42410;PMS5003;28056;51.112;0.984;2022-10-29T05:52:18;5;4;
42410;PMS5003;28056;51.112;0.984;2022-10-29T05:54:45;7;5;
42410;PMS5003;28056;51.112;0.984;2022-10-29T05:57:13;4;4;
42410;PMS5003;28056;51.112;0.984;2022-10-29T05:59:41;6;3;
42410;PMS5003;28056;51.112;0.984;2022-10-29T06:02:08;6;6;
42410;PMS5003;28056;51.112;0.984;2022-10-29T06:04:36;6;5;
42410;PMS5003;28056;51.112;0.984;2022-10-29T06:07:03;4;4;
42410;PMS5003;28056;51.112;0.984;2022-10-29T06:09:31;5;3;
42410;PMS5003;28056;51.112;0.984;2022-10-29T06:11:59;5;5;
42410;PMS5003;28056;51.112;0.984;2022-10-29T06:14:26;5;4;
42410;PMS5003;28056;51.112;0.984;2022-10-29T06:16:54;6;5;
42410;PMS5003;28056;51.112;0.984;2022-10-29T06:19:21;7;5;
42410;PMS5003;28056;51.112;0.984;2022-10-29T06:21:49;4;4;
42410;PMS5003;28056;51.112;0.984;2022-10-29T06:24:17;4;4;
42410;PMS5003;28056;51.112;0.984;2022-10-29T06:26:44;6;5;
42410;PMS5003;28056;51.112;0.984;2022-10-29T06:29:12;7;6;
42410;PMS5003;28056;51.112;0.984;2022-10-29T06:31:39;8;8;
42410;PMS5003;28056;51.112;0.984;2022-10-29T06:34:07;7;4;
42410;PMS5003;28056;51.112;0.984;2022-10-29T06:36:35;6;5;
42410;PMS5003;28056;51.112;0.984;2022-10-29T06:39:02;10;7;
42410;PMS5003;28056;51.112;0.984;2022-10-29T06:41:29;7;6;
42410;PMS5003;28056;51.112;0.984;2022-10-29T06:43:57;9;8;
42410;PMS5003;28056;51.112;0.984;2022-10-29T06:46:25;6;6;
42410;PMS5003;28056;51.112;0.984;2022-10-29T06:48:52;7;7;
42410;PMS5003;28056;51.112;0.984;2022-10-29T06:51:20;12;8;
42410;PMS5003;28056;51.112;0.984;2022-10-29T06:53:47;10;7;
42410;PMS5003;28056;51.112;0.984;2022-10-29T06:56:15;9;8;
42410;PMS5003;28056;51.112;0.984;2022-10-29T06:58:42;9;8;
42410;PMS5003;28056;51.112;0.984;2022-10-29T07:01:10;10;8;
42410;PMS5003;28056;51.112;0.984;2022-10-29T07:03:37;10;7;
42410;PMS5003;28056;51.112;0.984;2022-10-29T07:06:04;8;8;
42410;PMS5003;28056;51.112;0.984;2022-10-29T07:08:32;12;12;
42410;PMS5003;28056;51.112;0.984;2022-10-29T07:11:25;10;9;
42410;PMS5003;28056;51.112;0.984;2022-10-29T07:14:06;21;15;
42410;PMS5003;28056;51.112;0.984;2022-10-29T07:16:33;10;10;
42410;PMS5003;28056;51.112;0.984;2022-10-29T07:19:01;15;13;
42410;PMS5003;28056;51.112;0.984;2022-10-29T07:21:29;15;14;
42410;PMS5003;28056;51.112;0.984;2022-10-29T07:23:56;18;17;
42410;PMS5003;28056;51.112;0.984;2022-10-29T07:26:23;17;15;
42410;PMS5003;28056;51.112;0.984;2022-10-29T07:28:53;13;10;
42410;PMS5003;28056;51.112;0.984;2022-10-29T07:31:21;18;15;
42410;PMS5003;28056;51.112;0.984;2022-10-29T07:33:48;15;14;
42410;PMS5003;28056;51.112;0.984;2022-10-29T07:36:15;14;10;
42410;PMS5003;28056;51.112;0.984;2022-10-29T07:38:43;16;12;
42410;PMS5003;28056;51.112;0.984;2022-10-29T07:41:11;17;16;
42410;PMS5003;28056;51.112;0.984;2022-10-29T07:43:39;16;13;
42410;PMS5003;28056;51.112;0.984;2022-10-29T07:46:06;15;13;
42410;PMS5003;28056;51.112;0.984;2022-10-29T07:48:34;16;15;
42410;PMS5003;28056;51.112;0.984;2022-10-29T07:51:01;13;13;
42410;PMS5003;28056;51.112;0.984;2022-10-29T07:53:29;18;15;
42410;PMS5003;28056;51.112;0.984;2022-10-29T07:55:56;16;16;
42410;PMS5003;28056;51.112;0.984;2022-10-29T07:58:24;16;15;
42410;PMS5003;28056;51.112;0.984;2022-10-29T08:00:52;14;13;
42410;PMS5003;28056;51.112;0.984;2022-10-29T08:03:20;12;12;
42410;PMS5003;28056;51.112;0.984;2022-10-29T08:05:47;16;16;
42410;PMS5003;28056;51.112;0.984;2022-10-29T08:08:15;17;16;
42410;PMS5003;28056;51.112;0.984;2022-10-29T08:10:43;22;17;
42410;PMS5003;28056;51.112;0.984;2022-10-29T08:13:10;18;12;
42410;PMS5003;28056;51.112;0.984;2022-10-29T08:15:37;20;13;
42410;PMS5003;28056;51.112;0.984;2022-10-29T08:18:09;15;15;
42410;PMS5003;28056;51.112;0.984;2022-10-29T08:20:40;18;15;
42410;PMS5003;28056;51.112;0.984;2022-10-29T08:23:08;11;11;
42410;PMS5003;28056;51.112;0.984;2022-10-29T08:25:35;14;13;
42410;PMS5003;28056;51.112;0.984;2022-10-29T08:28:03;18;14;
42410;PMS5003;28056;51.112;0.984;2022-10-29T08:30:31;18;14;
42410;PMS5003;28056;51.112;0.984;2022-10-29T08:33:00;14;14;
42410;PMS5003;28056;51.112;0.984;2022-10-29T08:35:27;14;13;
42410;PMS5003;28056;51.112;0.984;2022-10-29T08:37:55;15;14;
42410;PMS5003;28056;51.112;0.984;2022-10-29T08:40:26;15;13;
42410;PMS5003;28056;51.112;0.984;2022-10-29T08:43:03;17;14;
42410;PMS5003;28056;51.112;0.984;2022-10-29T08:45:49;14;13;
42410;PMS5003;28056;51.112;0.984;2022-10-29T08:48:20;14;13;
42410;PMS5003;28056;51.112;0.984;2022-10-29T08:50:56;14;13;
42410;PMS5003;28056;51.112;0.984;2022-10-29T08:53:32;15;12;
42410;PMS5003;28056;51.112;0.984;2022-10-29T08:56:03;15;12;
42410;PMS5003;28056;51.112;0.984;2022-10-29T08:58:37;17;15;
42410;PMS5003;28056;51.112;0.984;2022-10-29T09:01:11;16;14;
42410;PMS5003;28056;51.112;0.984;2022-10-29T09:03:39;17;11;
42410;PMS5003;28056;51.112;0.984;2022-10-29T09:06:09;14;12;
42410;PMS5003;28056;51.112;0.984;2022-10-29T09:08:44;15;15;
42410;PMS5003;28056;51.112;0.984;2022-10-29T09:11:24;14;11;
42410;PMS5003;28056;51.112;0.984;2022-10-29T09:14:03;13;13;
42410;PMS5003;28056;51.112;0.984;2022-10-29T09:16:52;16;15;
42410;PMS5003;28056;51.112;0.984;2022-10-29T09:19:37;22;18;
42410;PMS5003;28056;51.112;0.984;2022-10-29T09:22:19;16;14;
42410;PMS5003;28056;51.112;0.984;2022-10-29T09:24:53;12;12;
42410;PMS5003;28056;51.112;0.984;2022-10-29T09:27:36;17;12;
42410;PMS5003;28056;51.112;0.984;2022-10-29T09:30:15;20;16;
42410;PMS5003;28056;51.112;0.984;2022-10-29T09:32:46;13;11;
42410;PMS5003;28056;51.112;0.984;2022-10-29T09:35:21;19;14;
42410;PMS5003;28056;51.112;0.984;2022-10-29T09:37:59;17;17;
42410;PMS5003;28056;51.112;0.984;2022-10-29T09:40:32;17;14;
42410;PMS5003;28056;51.112;0.984;2022-10-29T09:43:04;13;13;
